Time,TemperatureF,DewpointF,PressureIn,WindDirection,WindDirectionDegrees,WindSpeedMPH,WindSpeedGustMPH,Humidity,HourlyPrecipIn,Conditions,Clouds,dailyrainin,SolarRadiationWatts/m^2,SoftwareType,DateUTC
2013-04-01 00:02:00,56.0,56.0,-100.00,WSW,254,2.0,4.0,99,0.03,,,0.51,0.000000,,2013-04-01 04:02:00,
2013-04-01 00:33:00,56.0,56.0,-100.00,WSW,254,2.0,4.0,99,0.03,,,0.51,0.000000,,2013-04-01 04:33:00,
2013-04-01 00:44:00,56.0,56.0,-100.00,WSW,254,2.0,4.0,99,0.03,,,0.51,0.000000,,2013-04-01 04:44:00,
2013-04-01 00:53:00,56.0,56.0,-100.00,WSW,254,2.0,4.0,99,0.03,,,0.51,0.000000,,2013-04-01 04:53:00,
2013-04-01 01:02:00,56.0,56.0,-100.00,WNW,292,2.0,7.0,99,0.00,,,0.47,0.000000,,2013-04-01 05:02:00,
2013-04-01 01:33:00,56.0,56.0,-100.00,WNW,292,2.0,7.0,99,0.00,,,0.47,0.000000,,2013-04-01 05:33:00,
2013-04-01 01:43:00,56.0,56.0,-100.00,WNW,292,2.0,7.0,99,0.00,,,0.47,0.000000,,2013-04-01 05:43:00,
2013-04-01 01:53:00,56.0,56.0,-100.00,WNW,292,2.0,7.0,99,0.00,,,0.47,0.000000,,2013-04-01 05:53:00,
2013-04-01 02:02:00,56.0,56.0,-100.00,WNW,293,2.0,5.0,99,0.01,,,0.37,0.000000,,2013-04-01 06:02:00,
2013-04-01 02:23:00,56.0,56.0,-100.00,WNW,293,2.0,5.0,99,0.01,,,0.37,0.000000,,2013-04-01 06:23:00,
2013-04-01 02:34:00,56.0,56.0,-100.00,WNW,293,2.0,5.0,99,0.01,,,0.37,0.000000,,2013-04-01 06:34:00,
2013-04-01 02:43:00,56.0,56.0,-100.00,WNW,293,2.0,5.0,99,0.01,,,0.37,0.000000,,2013-04-01 06:43:00,
2013-04-01 02:53:00,56.0,56.0,-100.00,WNW,293,2.0,5.0,99,0.01,,,0.37,0.000000,,2013-04-01 06:53:00,
2013-04-01 03:02:00,56.0,56.0,-100.00,SSW,204,2.0,5.0,100,0.00,,,0.32,0.000000,,2013-04-01 07:02:00,
2013-04-01 03:22:00,56.0,56.0,-100.00,SSW,204,2.0,5.0,100,0.00,,,0.32,0.000000,,2013-04-01 07:22:00,
2013-04-01 03:32:00,56.0,56.0,-100.00,SSW,204,2.0,5.0,100,0.00,,,0.32,0.000000,,2013-04-01 07:32:00,
2013-04-01 03:43:00,56.0,56.0,-100.00,SSW,204,2.0,5.0,100,0.00,,,0.32,0.000000,,2013-04-01 07:43:00,
2013-04-01 03:53:00,56.0,56.0,-100.00,SSW,204,2.0,5.0,100,0.00,,,0.32,0.000000,,2013-04-01 07:53:00,
2013-04-01 04:02:00,55.0,55.0,-100.00,NW,313,2.0,5.0,100,0.00,,,0.28,0.000000,,2013-04-01 08:02:00,
2013-04-01 04:22:00,55.0,55.0,-100.00,NW,313,2.0,5.0,100,0.00,,,0.28,0.000000,,2013-04-01 08:22:00,
2013-04-01 04:32:00,55.0,55.0,-100.00,NW,313,2.0,5.0,100,0.00,,,0.28,0.000000,,2013-04-01 08:32:00,
2013-04-01 04:43:00,55.0,55.0,-100.00,NW,313,2.0,5.0,100,0.00,,,0.28,0.000000,,2013-04-01 08:43:00,
2013-04-01 04:53:00,55.0,55.0,-100.00,NW,313,2.0,5.0,100,0.00,,,0.28,0.000000,,2013-04-01 08:53:00,
2013-04-01 05:02:00,54.0,54.0,-100.00,NW,312,2.0,5.0,100,0.00,,,0.28,0.000000,,2013-04-01 09:02:00,
2013-04-01 05:33:00,54.0,54.0,-100.00,NW,312,2.0,5.0,100,0.00,,,0.28,0.000000,,2013-04-01 09:33:00,
2013-04-01 05:43:00,54.0,54.0,-100.00,NW,312,2.0,5.0,100,0.00,,,0.28,0.000000,,2013-04-01 09:43:00,
2013-04-01 05:54:00,54.0,54.0,-100.00,NW,312,2.0,5.0,100,0.00,,,0.28,0.000000,,2013-04-01 09:54:00,
2013-04-01 06:02:00,54.0,54.0,-100.00,North,350,2.0,4.0,100,0.00,,,0.28,0.000000,,2013-04-01 10:02:00,
2013-04-01 06:34:00,54.0,54.0,-100.00,North,350,2.0,4.0,100,0.00,,,0.28,0.000000,,2013-04-01 10:34:00,
2013-04-01 06:43:00,54.0,54.0,-100.00,North,350,2.0,4.0,100,0.00,,,0.28,0.000000,,2013-04-01 10:43:00,
2013-04-01 06:53:00,54.0,54.0,-100.00,North,350,2.0,4.0,100,0.00,,,0.28,0.000000,,2013-04-01 10:53:00,
2013-04-01 07:02:00,53.0,53.0,-100.00,West,270,1.0,4.0,100,0.00,,,0.28,0.000000,,2013-04-01 11:02:00,
2013-04-01 07:33:00,53.0,53.0,-100.00,West,270,1.0,4.0,100,0.00,,,0.28,0.000000,,2013-04-01 11:33:00,
2013-04-01 07:43:00,53.0,53.0,-100.00,West,270,1.0,4.0,100,0.00,,,0.28,0.000000,,2013-04-01 11:43:00,
2013-04-01 07:53:00,53.0,53.0,-100.00,West,270,1.0,4.0,100,0.00,,,0.28,0.000000,,2013-04-01 11:53:00,
2013-04-01 08:02:00,51.0,51.0,-100.00,NNW,327,2.0,3.0,100,0.00,,,0.28,6.000000,,2013-04-01 12:02:00,
2013-04-01 08:23:00,51.0,51.0,-100.00,NNW,327,2.0,3.0,100,0.00,,,0.28,6.000000,,2013-04-01 12:23:00,
2013-04-01 08:32:00,51.0,51.0,-100.00,NNW,327,2.0,3.0,100,0.00,,,0.28,6.000000,,2013-04-01 12:32:00,
2013-04-01 08:43:00,51.0,51.0,-100.00,NNW,327,2.0,3.0,100,0.00,,,0.28,6.000000,,2013-04-01 12:43:00,
2013-04-01 08:53:00,51.0,51.0,-100.00,NNW,327,2.0,3.0,100,0.00,,,0.28,6.000000,,2013-04-01 12:53:00,
2013-04-01 09:02:00,51.0,49.0,-100.00,NW,324,3.0,4.0,92,0.00,,,0.28,35.000000,,2013-04-01 13:02:00,
2013-04-01 09:23:00,51.0,49.0,-100.00,NW,324,3.0,4.0,92,0.00,,,0.28,35.000000,,2013-04-01 13:23:00,
2013-04-01 09:33:00,51.0,49.0,-100.00,NW,324,3.0,4.0,92,0.00,,,0.28,35.000000,,2013-04-01 13:33:00,
2013-04-01 09:43:00,51.0,49.0,-100.00,NW,324,3.0,4.0,92,0.00,,,0.28,35.000000,,2013-04-01 13:43:00,
2013-04-01 09:53:00,51.0,49.0,-100.00,NW,324,3.0,4.0,92,0.00,,,0.28,35.000000,,2013-04-01 13:53:00,
2013-04-01 10:02:00,59.0,45.0,-100.00,NW,322,2.0,5.0,60,0.00,,,0.28,263.000000,,2013-04-01 14:02:00,
2013-04-01 10:33:00,59.0,45.0,-100.00,NW,322,2.0,5.0,60,0.00,,,0.28,263.000000,,2013-04-01 14:33:00,
2013-04-01 10:43:00,59.0,45.0,-100.00,NW,322,2.0,5.0,60,0.00,,,0.28,263.000000,,2013-04-01 14:43:00,
2013-04-01 10:53:00,59.0,45.0,-100.00,NW,322,2.0,5.0,60,0.00,,,0.28,263.000000,,2013-04-01 14:53:00,
2013-04-01 11:02:00,64.0,40.0,-100.00,NNW,328,4.0,7.0,42,0.00,,,0.28,596.000000,,2013-04-01 15:02:00,
2013-04-01 11:23:00,64.0,40.0,-100.00,NNW,328,4.0,7.0,42,0.00,,,0.28,596.000000,,2013-04-01 15:23:00,
2013-04-01 11:34:00,64.0,40.0,-100.00,NNW,328,4.0,7.0,42,0.00,,,0.28,596.000000,,2013-04-01 15:34:00,
2013-04-01 11:44:00,64.0,40.0,-100.00,NNW,328,4.0,7.0,42,0.00,,,0.28,596.000000,,2013-04-01 15:44:00,
2013-04-01 11:54:00,64.0,40.0,-100.00,NNW,328,4.0,7.0,42,0.00,,,0.28,596.000000,,2013-04-01 15:54:00,
2013-04-01 13:02:00,70.0,35.0,-100.00,NW,325,6.0,10.0,28,-99.99,,,0.28,885.000000,,2013-04-01 17:02:00,
2013-04-01 13:32:00,70.0,35.0,-100.00,NW,325,6.0,10.0,28,-99.99,,,0.28,885.000000,,2013-04-01 17:32:00,
2013-04-01 13:42:00,70.0,35.0,-100.00,NW,325,6.0,10.0,28,-99.99,,,0.28,885.000000,,2013-04-01 17:42:00,
2013-04-01 13:53:00,70.0,35.0,-100.00,NW,325,6.0,10.0,28,-99.99,,,0.28,885.000000,,2013-04-01 17:53:00,
2013-04-01 14:02:00,70.0,35.0,-100.00,NW,326,7.0,12.0,28,0.00,,,0.28,960.000000,,2013-04-01 18:02:00,
2013-04-01 14:33:00,70.0,35.0,-100.00,NW,326,7.0,12.0,28,0.00,,,0.28,960.000000,,2013-04-01 18:33:00,
2013-04-01 14:43:00,70.0,35.0,-100.00,NW,326,7.0,12.0,28,0.00,,,0.28,960.000000,,2013-04-01 18:43:00,
2013-04-01 14:53:00,70.0,35.0,-100.00,NW,326,7.0,12.0,28,0.00,,,0.28,960.000000,,2013-04-01 18:53:00,
2013-04-01 15:02:00,71.0,37.0,-100.00,NW,320,6.0,13.0,29,0.00,,,0.18,789.000000,,2013-04-01 19:02:00,
2013-04-01 15:33:00,71.0,37.0,-100.00,NW,320,6.0,13.0,29,0.00,,,0.18,789.000000,,2013-04-01 19:33:00,
2013-04-01 15:43:00,71.0,37.0,-100.00,NW,320,6.0,13.0,29,0.00,,,0.18,789.000000,,2013-04-01 19:43:00,
2013-04-01 15:53:00,71.0,37.0,-100.00,NW,320,6.0,13.0,29,0.00,,,0.18,789.000000,,2013-04-01 19:53:00,
2013-04-01 16:02:00,70.0,39.0,-100.00,NW,310,6.0,14.0,32,0.00,,,0.08,797.000000,,2013-04-01 20:02:00,
2013-04-01 16:33:00,70.0,39.0,-100.00,NW,310,6.0,14.0,32,0.00,,,0.08,797.000000,,2013-04-01 20:33:00,
2013-04-01 16:43:00,70.0,39.0,-100.00,NW,310,6.0,14.0,32,0.00,,,0.08,797.000000,,2013-04-01 20:43:00,
2013-04-01 16:52:00,70.0,39.0,-100.00,NW,310,6.0,14.0,32,0.00,,,0.08,797.000000,,2013-04-01 20:52:00,
2013-04-01 17:02:00,67.0,40.0,-100.00,NNW,333,6.0,11.0,37,0.00,,,0.07,508.000000,,2013-04-01 21:02:00,
2013-04-01 17:33:00,67.0,40.0,-100.00,NNW,333,6.0,11.0,37,0.00,,,0.07,508.000000,,2013-04-01 21:33:00,
2013-04-01 17:44:00,67.0,40.0,-100.00,NNW,333,6.0,11.0,37,0.00,,,0.07,508.000000,,2013-04-01 21:44:00,
2013-04-01 17:53:00,67.0,40.0,-100.00,NNW,333,6.0,11.0,37,0.00,,,0.07,508.000000,,2013-04-01 21:53:00,
2013-04-01 18:02:00,67.0,39.0,-100.00,NNW,329,6.0,15.0,36,0.00,,,0.07,331.000000,,2013-04-01 22:02:00,
2013-04-01 18:33:00,67.0,39.0,-100.00,NNW,329,6.0,15.0,36,0.00,,,0.07,331.000000,,2013-04-01 22:33:00,
2013-04-01 18:43:00,67.0,39.0,-100.00,NNW,329,6.0,15.0,36,0.00,,,0.07,331.000000,,2013-04-01 22:43:00,
2013-04-01 18:52:00,67.0,39.0,-100.00,NNW,329,6.0,15.0,36,0.00,,,0.07,331.000000,,2013-04-01 22:52:00,
2013-04-01 19:02:00,65.0,37.0,-100.00,NW,311,6.0,16.0,35,0.00,,,0.07,75.000000,,2013-04-01 23:02:00,
2013-04-01 19:32:00,65.0,37.0,-100.00,NW,311,6.0,16.0,35,0.00,,,0.07,75.000000,,2013-04-01 23:32:00,
2013-04-01 19:43:00,65.0,37.0,-100.00,NW,311,6.0,16.0,35,0.00,,,0.07,75.000000,,2013-04-01 23:43:00,
2013-04-01 19:53:00,65.0,37.0,-100.00,NW,311,6.0,16.0,35,0.00,,,0.07,75.000000,,2013-04-01 23:53:00,
2013-04-01 20:02:00,62.0,37.0,-100.00,NW,319,5.0,9.0,39,0.00,,,0.07,24.000000,,2013-04-02 00:02:00,
2013-04-01 20:23:00,62.0,37.0,-100.00,NW,319,5.0,9.0,39,0.00,,,0.07,24.000000,,2013-04-02 00:23:00,
2013-04-01 20:33:00,62.0,37.0,-100.00,NW,319,5.0,9.0,39,0.00,,,0.07,24.000000,,2013-04-02 00:33:00,
2013-04-01 20:43:00,62.0,37.0,-100.00,NW,319,5.0,9.0,39,0.00,,,0.07,24.000000,,2013-04-02 00:43:00,
2013-04-01 20:53:00,62.0,37.0,-100.00,NW,319,5.0,9.0,39,0.00,,,0.07,24.000000,,2013-04-02 00:53:00,
2013-04-01 21:02:00,60.0,37.0,-100.00,NW,324,6.0,9.0,43,0.00,,,0.07,0.000000,,2013-04-02 01:02:00,
2013-04-01 21:22:00,60.0,37.0,-100.00,NW,324,6.0,9.0,43,0.00,,,0.07,0.000000,,2013-04-02 01:22:00,
2013-04-01 21:32:00,60.0,37.0,-100.00,NW,324,6.0,9.0,43,0.00,,,0.07,0.000000,,2013-04-02 01:32:00,
2013-04-01 21:43:00,60.0,37.0,-100.00,NW,324,6.0,9.0,43,0.00,,,0.07,0.000000,,2013-04-02 01:43:00,
2013-04-01 21:53:00,60.0,37.0,-100.00,NW,324,6.0,9.0,43,0.00,,,0.07,0.000000,,2013-04-02 01:53:00,
2013-04-01 22:02:00,58.0,39.0,-100.00,NW,323,6.0,8.0,50,0.00,,,0.07,0.000000,,2013-04-02 02:02:00,
2013-04-01 22:33:00,58.0,39.0,-100.00,NW,323,6.0,8.0,50,0.00,,,0.07,0.000000,,2013-04-02 02:33:00,
2013-04-01 22:43:00,58.0,39.0,-100.00,NW,323,6.0,8.0,50,0.00,,,0.07,0.000000,,2013-04-02 02:43:00,
2013-04-01 22:53:00,58.0,39.0,-100.00,NW,323,6.0,8.0,50,0.00,,,0.07,0.000000,,2013-04-02 02:53:00,
2013-04-01 23:02:00,56.0,40.0,-100.00,NW,320,5.0,7.0,54,0.00,,,0.04,0.000000,,2013-04-02 03:02:00,
2013-04-01 23:22:00,56.0,40.0,-100.00,NW,320,5.0,7.0,54,0.00,,,0.04,0.000000,,2013-04-02 03:22:00,
2013-04-01 23:33:00,56.0,40.0,-100.00,NW,320,5.0,7.0,54,0.00,,,0.04,0.000000,,2013-04-02 03:33:00,
2013-04-01 23:43:00,56.0,40.0,-100.00,NW,320,5.0,7.0,54,0.00,,,0.04,0.000000,,2013-04-02 03:43:00,
2013-04-01 23:53:00,56.0,40.0,-100.00,NW,320,5.0,7.0,54,0.00,,,0.04,0.000000,,2013-04-02 03:53:00,